SWR5MJ LSZH-EDDM
Flight info
| Callsign | SWR5MJ |
|---|---|
| Flight time | 0h 50m |
| Altitude | 17000 |
| Route | DEGES Z6 NUNRI T103 BETOS BETOS1B |
| Aircraft | A20N/M-SDE2E3FGHIRWXY/LB1 |
Departure
| Time | 2026-05-06 17:03 |
|---|---|
| Airport | Zürich Airport (LSZH) |
Arrival
| Time | 2026-05-06 17:54 |
|---|---|
| Airport | Munich Airport (EDDM) |
| Time | Latitude | Longitude | Altitude | Speed | Heading |
|---|---|---|---|---|---|
| 2026-05-06 16:44 | 47.44850 | 8.56147 | 1397 ft | 0 kts | 65° |
| 2026-05-06 16:55 | 47.44845 | 8.56131 | 1407 ft | 2 kts | 65° |
| 2026-05-06 16:56 | 47.44839 | 8.56111 | 1402 ft | 2 kts | 65° |
| 2026-05-06 16:56 | 47.44832 | 8.56090 | 1405 ft | 3 kts | 65° |
| 2026-05-06 16:56 | 47.44820 | 8.56052 | 1407 ft | 4 kts | 52° |
| 2026-05-06 16:56 | 47.44796 | 8.56032 | 1407 ft | 3 kts | 332° |
| 2026-05-06 16:57 | 47.44795 | 8.56032 | 1407 ft | 0 kts | 332° |
| 2026-05-06 16:58 | 47.44816 | 8.56016 | 1405 ft | 8 kts | 332° |
| 2026-05-06 16:58 | 47.44895 | 8.55953 | 1398 ft | 17 kts | 331° |
| 2026-05-06 16:58 | 47.44998 | 8.55857 | 1406 ft | 9 kts | 304° |
| 2026-05-06 16:58 | 47.45003 | 8.55762 | 1403 ft | 11 kts | 276° |
| 2026-05-06 16:59 | 47.45013 | 8.55731 | 1398 ft | 0 kts | 311° |
| 2026-05-06 16:59 | 47.45021 | 8.55724 | 1402 ft | 7 kts | 331° |
| 2026-05-06 16:59 | 47.45099 | 8.55666 | 1402 ft | 16 kts | 336° |
| 2026-05-06 16:59 | 47.45216 | 8.55589 | 1399 ft | 20 kts | 338° |
| 2026-05-06 17:00 | 47.45356 | 8.55512 | 1397 ft | 22 kts | 333° |
| 2026-05-06 17:00 | 47.45504 | 8.55413 | 1404 ft | 25 kts | 337° |
| 2026-05-06 17:00 | 47.45649 | 8.55351 | 1397 ft | 13 kts | 24° |
| 2026-05-06 17:00 | 47.45663 | 8.55473 | 1397 ft | 15 kts | 97° |
| 2026-05-06 17:01 | 47.45647 | 8.55695 | 1405 ft | 31 kts | 95° |
| 2026-05-06 17:01 | 47.45620 | 8.56082 | 1396 ft | 43 kts | 96° |
| 2026-05-06 17:01 | 47.45616 | 8.56241 | 1396 ft | 0 kts | 71° |
| 2026-05-06 17:01 | 47.45634 | 8.56266 | 1403 ft | 7 kts | 24° |
| 2026-05-06 17:02 | 47.45698 | 8.56251 | 1400 ft | 11 kts | 323° |
| 2026-05-06 17:02 | 47.45720 | 8.56162 | 1405 ft | 0 kts | 274° |
| 2026-05-06 17:02 | 47.45721 | 8.56162 | 1405 ft | 3 kts | 274° |
| 2026-05-06 17:02 | 47.45747 | 8.55715 | 1404 ft | 82 kts | 274° |
| 2026-05-06 17:03 | 47.45826 | 8.54566 | 1405 ft | 142 kts | 275° |
| 2026-05-06 17:03 | 47.45942 | 8.53038 | 1963 ft | 143 kts | 271° |
| 2026-05-06 17:03 | 47.45973 | 8.51640 | 2727 ft | 140 kts | 271° |
| 2026-05-06 17:03 | 47.46134 | 8.50138 | 3130 ft | 154 kts | 281° |
| 2026-05-06 17:04 | 47.46330 | 8.48506 | 3554 ft | 169 kts | 275° |
| 2026-05-06 17:04 | 47.46216 | 8.46730 | 3900 ft | 184 kts | 241° |
| 2026-05-06 17:04 | 47.45299 | 8.45310 | 4225 ft | 204 kts | 218° |
| 2026-05-06 17:04 | 47.44209 | 8.43893 | 4706 ft | 211 kts | 232° |
| 2026-05-06 17:05 | 47.43549 | 8.41959 | 5284 ft | 213 kts | 249° |
| 2026-05-06 17:05 | 47.43066 | 8.39851 | 5987 ft | 214 kts | 252° |
| 2026-05-06 17:05 | 47.42603 | 8.37782 | 6745 ft | 214 kts | 241° |
| 2026-05-06 17:05 | 47.41594 | 8.36223 | 7479 ft | 217 kts | 210° |
| 2026-05-06 17:06 | 47.40093 | 8.35738 | 8314 ft | 227 kts | 178° |
| 2026-05-06 17:06 | 47.38609 | 8.36551 | 9202 ft | 237 kts | 147° |
| 2026-05-06 17:06 | 47.37541 | 8.38491 | 9989 ft | 253 kts | 117° |
| 2026-05-06 17:06 | 47.37236 | 8.41067 | 10720 ft | 264 kts | 86° |
| 2026-05-06 17:07 | 47.37812 | 8.43651 | 11488 ft | 270 kts | 56° |
| 2026-05-06 17:07 | 47.39159 | 8.45596 | 12258 ft | 271 kts | 29° |
| 2026-05-06 17:07 | 47.40761 | 8.46989 | 13009 ft | 275 kts | 30° |
| 2026-05-06 17:07 | 47.42350 | 8.48673 | 13822 ft | 278 kts | 39° |
| 2026-05-06 17:08 | 47.43730 | 8.50675 | 14512 ft | 281 kts | 48° |
| 2026-05-06 17:08 | 47.44966 | 8.52908 | 15205 ft | 284 kts | 53° |
| 2026-05-06 17:08 | 47.46139 | 8.55300 | 15883 ft | 288 kts | 57° |
| 2026-05-06 17:08 | 47.46935 | 8.58061 | 16150 ft | 305 kts | 82° |
| 2026-05-06 17:09 | 47.47089 | 8.61298 | 16370 ft | 325 kts | 87° |
| 2026-05-06 17:09 | 47.47405 | 8.64740 | 16576 ft | 348 kts | 82° |
| 2026-05-06 17:09 | 47.47849 | 8.68313 | 16820 ft | 368 kts | 81° |
| 2026-05-06 17:09 | 47.48321 | 8.72156 | 16912 ft | 386 kts | 81° |
| 2026-05-06 17:10 | 47.48767 | 8.76050 | 16913 ft | 387 kts | 82° |
| 2026-05-06 17:10 | 47.49192 | 8.80019 | 16912 ft | 385 kts | 83° |
| 2026-05-06 17:10 | 47.49589 | 8.83893 | 16901 ft | 386 kts | 83° |
| 2026-05-06 17:10 | 47.49985 | 8.87832 | 16901 ft | 386 kts | 83° |
| 2026-05-06 17:11 | 47.50374 | 8.91729 | 16901 ft | 385 kts | 83° |
| 2026-05-06 17:11 | 47.50765 | 8.95670 | 16901 ft | 386 kts | 83° |
| 2026-05-06 17:11 | 47.51155 | 8.99615 | 16897 ft | 386 kts | 83° |
| 2026-05-06 17:11 | 47.51539 | 9.03498 | 16895 ft | 386 kts | 83° |
| 2026-05-06 17:12 | 47.51928 | 9.07445 | 16890 ft | 386 kts | 83° |
| 2026-05-06 17:12 | 47.52311 | 9.11343 | 16876 ft | 386 kts | 83° |
| 2026-05-06 17:12 | 47.52701 | 9.15319 | 16882 ft | 386 kts | 83° |
| 2026-05-06 17:12 | 47.53082 | 9.19228 | 16872 ft | 386 kts | 84° |
| 2026-05-06 17:13 | 47.53462 | 9.23144 | 16875 ft | 386 kts | 84° |
| 2026-05-06 17:13 | 47.53845 | 9.27089 | 16878 ft | 386 kts | 84° |
| 2026-05-06 17:13 | 47.54223 | 9.31010 | 16878 ft | 386 kts | 84° |
| 2026-05-06 17:13 | 47.54604 | 9.34969 | 16886 ft | 386 kts | 84° |
| 2026-05-06 17:14 | 47.54980 | 9.38896 | 16883 ft | 386 kts | 84° |
| 2026-05-06 17:14 | 47.55356 | 9.42834 | 16877 ft | 386 kts | 84° |
| 2026-05-06 17:14 | 47.55728 | 9.46749 | 16883 ft | 386 kts | 84° |
| 2026-05-06 17:14 | 47.56098 | 9.50650 | 16884 ft | 386 kts | 84° |
| 2026-05-06 17:15 | 47.56472 | 9.54619 | 16891 ft | 386 kts | 84° |
| 2026-05-06 17:15 | 47.56841 | 9.58534 | 16882 ft | 386 kts | 84° |
| 2026-05-06 17:15 | 47.57208 | 9.62456 | 16885 ft | 386 kts | 84° |
| 2026-05-06 17:15 | 47.57577 | 9.66413 | 16878 ft | 386 kts | 84° |
| 2026-05-06 17:16 | 47.57820 | 9.69029 | 16877 ft | 386 kts | 84° |
| 2026-05-06 17:16 | 47.58308 | 9.74284 | 16878 ft | 386 kts | 84° |
| 2026-05-06 17:16 | 47.58551 | 9.76922 | 16882 ft | 386 kts | 84° |
| 2026-05-06 17:16 | 47.59032 | 9.82154 | 16876 ft | 386 kts | 84° |
| 2026-05-06 17:17 | 47.59272 | 9.84776 | 16873 ft | 386 kts | 84° |
| 2026-05-06 17:17 | 47.59634 | 9.88740 | 16872 ft | 386 kts | 84° |
| 2026-05-06 17:17 | 47.59990 | 9.92649 | 16876 ft | 386 kts | 84° |
| 2026-05-06 17:17 | 47.60348 | 9.96593 | 16879 ft | 386 kts | 84° |
| 2026-05-06 17:18 | 47.60706 | 10.00559 | 16877 ft | 385 kts | 84° |
| 2026-05-06 17:18 | 47.61061 | 10.04507 | 16875 ft | 386 kts | 85° |
| 2026-05-06 17:18 | 47.61410 | 10.08410 | 16879 ft | 386 kts | 85° |
| 2026-05-06 17:18 | 47.61764 | 10.12380 | 16875 ft | 386 kts | 85° |
| 2026-05-06 17:19 | 47.61993 | 10.14958 | 16879 ft | 386 kts | 85° |
| 2026-05-06 17:19 | 47.62213 | 10.17422 | 16844 ft | 386 kts | 85° |
| 2026-05-06 17:19 | 47.62561 | 10.21350 | 16612 ft | 386 kts | 85° |
| 2026-05-06 17:19 | 47.62905 | 10.25260 | 16351 ft | 383 kts | 85° |
| 2026-05-06 17:20 | 47.63250 | 10.29198 | 16092 ft | 381 kts | 85° |
| 2026-05-06 17:20 | 47.63590 | 10.33095 | 15834 ft | 380 kts | 85° |
| 2026-05-06 17:20 | 47.63924 | 10.36939 | 15585 ft | 379 kts | 85° |
| 2026-05-06 17:20 | 47.64261 | 10.40835 | 15328 ft | 378 kts | 85° |
| 2026-05-06 17:21 | 47.64591 | 10.44659 | 15078 ft | 376 kts | 85° |
| 2026-05-06 17:21 | 47.64923 | 10.48524 | 14830 ft | 375 kts | 85° |
| 2026-05-06 17:21 | 47.65249 | 10.52338 | 14585 ft | 375 kts | 85° |
| 2026-05-06 17:21 | 47.65576 | 10.56170 | 14338 ft | 373 kts | 85° |
| 2026-05-06 17:22 | 47.66148 | 10.59893 | 14095 ft | 374 kts | 69° |
| 2026-05-06 17:22 | 47.67525 | 10.63194 | 13857 ft | 375 kts | 48° |
| 2026-05-06 17:22 | 47.69422 | 10.65804 | 13623 ft | 375 kts | 41° |
| 2026-05-06 17:22 | 47.71416 | 10.68346 | 13366 ft | 374 kts | 40° |
| 2026-05-06 17:23 | 47.73375 | 10.70828 | 13111 ft | 372 kts | 40° |
| 2026-05-06 17:23 | 47.75346 | 10.73340 | 12842 ft | 370 kts | 40° |
| 2026-05-06 17:23 | 47.77283 | 10.75827 | 12583 ft | 369 kts | 40° |
| 2026-05-06 17:23 | 47.79209 | 10.78364 | 12309 ft | 368 kts | 46° |
| 2026-05-06 17:24 | 47.80822 | 10.81245 | 12060 ft | 367 kts | 47° |
| 2026-05-06 17:24 | 47.82463 | 10.84148 | 11793 ft | 365 kts | 59° |
| 2026-05-06 17:24 | 47.83390 | 10.87632 | 11562 ft | 360 kts | 81° |
| 2026-05-06 17:24 | 47.83422 | 10.91262 | 11374 ft | 349 kts | 103° |
| 2026-05-06 17:25 | 47.82615 | 10.94581 | 11147 ft | 334 kts | 120° |
| 2026-05-06 17:25 | 47.81908 | 10.97849 | 10916 ft | 335 kts | 98° |
| 2026-05-06 17:25 | 47.82081 | 11.01292 | 10859 ft | 342 kts | 76° |
| 2026-05-06 17:25 | 47.83125 | 11.04460 | 10853 ft | 342 kts | 52° |
| 2026-05-06 17:26 | 47.84880 | 11.06860 | 10859 ft | 343 kts | 34° |
| 2026-05-06 17:26 | 47.86845 | 11.08893 | 10846 ft | 342 kts | 34° |
| 2026-05-06 17:26 | 47.88784 | 11.10897 | 10856 ft | 342 kts | 34° |
| 2026-05-06 17:26 | 47.90732 | 11.12910 | 10851 ft | 343 kts | 34° |
| 2026-05-06 17:27 | 47.92711 | 11.14950 | 10833 ft | 343 kts | 34° |
| 2026-05-06 17:27 | 47.94656 | 11.16957 | 10831 ft | 343 kts | 34° |
| 2026-05-06 17:27 | 47.96631 | 11.18998 | 10833 ft | 343 kts | 34° |
| 2026-05-06 17:27 | 47.98581 | 11.21012 | 10829 ft | 344 kts | 34° |
| 2026-05-06 17:28 | 48.00539 | 11.23040 | 10833 ft | 344 kts | 34° |
| 2026-05-06 17:28 | 48.02518 | 11.25089 | 10824 ft | 344 kts | 34° |
| 2026-05-06 17:28 | 48.04465 | 11.27108 | 10829 ft | 344 kts | 34° |
| 2026-05-06 17:28 | 48.06433 | 11.29154 | 10778 ft | 343 kts | 34° |
| 2026-05-06 17:29 | 48.08396 | 11.31190 | 10545 ft | 340 kts | 34° |
| 2026-05-06 17:29 | 48.10315 | 11.33184 | 10263 ft | 336 kts | 34° |
| 2026-05-06 17:29 | 48.12235 | 11.35185 | 9912 ft | 333 kts | 34° |
| 2026-05-06 17:29 | 48.14115 | 11.37152 | 9460 ft | 331 kts | 34° |
| 2026-05-06 17:30 | 48.16027 | 11.39150 | 8777 ft | 336 kts | 34° |
| 2026-05-06 17:30 | 48.17934 | 11.41166 | 8145 ft | 337 kts | 34° |
| 2026-05-06 17:30 | 48.19791 | 11.43142 | 7896 ft | 319 kts | 34° |
| 2026-05-06 17:30 | 48.21540 | 11.45031 | 7820 ft | 301 kts | 34° |
| 2026-05-06 17:31 | 48.23212 | 11.46838 | 7844 ft | 300 kts | 34° |
| 2026-05-06 17:31 | 48.24913 | 11.48724 | 7851 ft | 303 kts | 40° |
| 2026-05-06 17:31 | 48.26166 | 11.51181 | 7808 ft | 302 kts | 66° |
| 2026-05-06 17:31 | 48.26626 | 11.54238 | 7822 ft | 302 kts | 91° |
| 2026-05-06 17:32 | 48.26577 | 11.57377 | 7815 ft | 301 kts | 94° |
| 2026-05-06 17:32 | 48.26508 | 11.60506 | 7812 ft | 300 kts | 94° |
| 2026-05-06 17:32 | 48.26437 | 11.63616 | 7808 ft | 296 kts | 94° |
| 2026-05-06 17:32 | 48.26376 | 11.66644 | 7795 ft | 281 kts | 94° |
| 2026-05-06 17:33 | 48.26317 | 11.69478 | 7798 ft | 265 kts | 94° |
| 2026-05-06 17:33 | 48.26266 | 11.72233 | 7808 ft | 265 kts | 94° |
| 2026-05-06 17:33 | 48.26217 | 11.74987 | 7758 ft | 267 kts | 94° |
| 2026-05-06 17:33 | 48.26199 | 11.77789 | 7441 ft | 270 kts | 89° |
| 2026-05-06 17:34 | 48.26404 | 11.80642 | 6878 ft | 280 kts | 84° |
| 2026-05-06 17:34 | 48.26657 | 11.83557 | 6240 ft | 286 kts | 84° |
| 2026-05-06 17:34 | 48.26900 | 11.86488 | 5911 ft | 275 kts | 84° |
| 2026-05-06 17:34 | 48.27123 | 11.89227 | 5803 ft | 257 kts | 84° |
| 2026-05-06 17:35 | 48.27334 | 11.91800 | 5811 ft | 242 kts | 84° |
| 2026-05-06 17:35 | 48.27549 | 11.94392 | 5808 ft | 261 kts | 84° |
| 2026-05-06 17:35 | 48.27777 | 11.97116 | 5803 ft | 259 kts | 84° |
| 2026-05-06 17:36 | 48.28236 | 12.02438 | 5807 ft | 259 kts | 84° |
| 2026-05-06 17:36 | 48.28467 | 12.05113 | 5794 ft | 257 kts | 84° |
| 2026-05-06 17:36 | 48.28690 | 12.07752 | 5809 ft | 257 kts | 84° |
| 2026-05-06 17:36 | 48.28982 | 12.10408 | 5791 ft | 256 kts | 72° |
| 2026-05-06 17:37 | 48.29890 | 12.12665 | 5807 ft | 256 kts | 49° |
| 2026-05-06 17:37 | 48.31078 | 12.14684 | 5789 ft | 259 kts | 48° |
| 2026-05-06 17:37 | 48.32274 | 12.16689 | 5782 ft | 258 kts | 48° |
| 2026-05-06 17:37 | 48.33464 | 12.18683 | 5785 ft | 255 kts | 48° |
| 2026-05-06 17:38 | 48.34372 | 12.20930 | 5788 ft | 251 kts | 76° |
| 2026-05-06 17:38 | 48.34665 | 12.23539 | 5774 ft | 252 kts | 94° |
| 2026-05-06 17:38 | 48.34407 | 12.26084 | 5767 ft | 247 kts | 104° |
| 2026-05-06 17:38 | 48.34070 | 12.28601 | 5767 ft | 246 kts | 104° |
| 2026-05-06 17:39 | 48.33726 | 12.31137 | 5767 ft | 247 kts | 104° |
| 2026-05-06 17:39 | 48.33388 | 12.33632 | 5764 ft | 246 kts | 104° |
| 2026-05-06 17:39 | 48.33045 | 12.36155 | 5757 ft | 245 kts | 104° |
| 2026-05-06 17:39 | 48.32708 | 12.38643 | 5748 ft | 245 kts | 104° |
| 2026-05-06 17:40 | 48.32371 | 12.41144 | 5753 ft | 245 kts | 104° |
| 2026-05-06 17:40 | 48.32030 | 12.43669 | 5740 ft | 244 kts | 104° |
| 2026-05-06 17:40 | 48.31695 | 12.46137 | 5746 ft | 242 kts | 104° |
| 2026-05-06 17:40 | 48.31351 | 12.48643 | 5744 ft | 244 kts | 104° |
| 2026-05-06 17:41 | 48.31011 | 12.51150 | 5743 ft | 243 kts | 104° |
| 2026-05-06 17:41 | 48.30678 | 12.53604 | 5732 ft | 243 kts | 104° |
| 2026-05-06 17:41 | 48.30339 | 12.56075 | 5736 ft | 243 kts | 104° |
| 2026-05-06 17:41 | 48.29998 | 12.58574 | 5731 ft | 244 kts | 102° |
| 2026-05-06 17:42 | 48.30110 | 12.61081 | 5731 ft | 247 kts | 72° |
| 2026-05-06 17:42 | 48.31070 | 12.63240 | 5727 ft | 252 kts | 41° |
| 2026-05-06 17:42 | 48.32641 | 12.64420 | 5730 ft | 255 kts | 10° |
| 2026-05-06 17:42 | 48.34376 | 12.64299 | 5726 ft | 253 kts | 339° |
| 2026-05-06 17:43 | 48.35831 | 12.62924 | 5730 ft | 248 kts | 308° |
| 2026-05-06 17:43 | 48.36742 | 12.60729 | 5728 ft | 246 kts | 294° |
| 2026-05-06 17:43 | 48.37527 | 12.58456 | 5733 ft | 246 kts | 294° |
| 2026-05-06 17:43 | 48.38084 | 12.56071 | 5733 ft | 235 kts | 270° |
| 2026-05-06 17:44 | 48.38067 | 12.53727 | 5736 ft | 216 kts | 265° |
| 2026-05-06 17:44 | 48.38030 | 12.51525 | 5744 ft | 207 kts | 265° |
| 2026-05-06 17:44 | 48.37994 | 12.49337 | 5745 ft | 212 kts | 265° |
| 2026-05-06 17:44 | 48.37965 | 12.47204 | 5734 ft | 194 kts | 265° |
| 2026-05-06 17:45 | 48.37941 | 12.45206 | 5635 ft | 192 kts | 265° |
| 2026-05-06 17:45 | 48.37916 | 12.43186 | 5510 ft | 193 kts | 265° |
| 2026-05-06 17:45 | 48.37979 | 12.41192 | 5390 ft | 193 kts | 275° |
| 2026-05-06 17:45 | 48.38189 | 12.39208 | 5267 ft | 192 kts | 276° |
| 2026-05-06 17:46 | 48.38407 | 12.37218 | 5150 ft | 192 kts | 276° |
| 2026-05-06 17:46 | 48.38545 | 12.35267 | 5053 ft | 181 kts | 269° |
| 2026-05-06 17:46 | 48.38522 | 12.33452 | 4959 ft | 170 kts | 264° |
| 2026-05-06 17:46 | 48.38413 | 12.31639 | 4962 ft | 177 kts | 262° |
| 2026-05-06 17:47 | 48.38276 | 12.29805 | 4961 ft | 178 kts | 261° |
| 2026-05-06 17:47 | 48.38123 | 12.27825 | 4972 ft | 207 kts | 261° |
| 2026-05-06 17:47 | 48.37953 | 12.25633 | 4972 ft | 212 kts | 262° |
| 2026-05-06 17:47 | 48.37787 | 12.23448 | 4975 ft | 208 kts | 262° |
| 2026-05-06 17:48 | 48.37621 | 12.21288 | 4983 ft | 209 kts | 261° |
| 2026-05-06 17:48 | 48.37456 | 12.19137 | 4986 ft | 210 kts | 262° |
| 2026-05-06 17:48 | 48.37276 | 12.16961 | 4989 ft | 207 kts | 261° |
| 2026-05-06 17:48 | 48.37090 | 12.14846 | 4988 ft | 205 kts | 261° |
| 2026-05-06 17:49 | 48.36906 | 12.12734 | 4991 ft | 197 kts | 261° |
| 2026-05-06 17:49 | 48.36748 | 12.10765 | 4991 ft | 181 kts | 264° |
| 2026-05-06 17:49 | 48.36667 | 12.08948 | 4993 ft | 172 kts | 263° |
| 2026-05-06 17:49 | 48.36534 | 12.07155 | 4966 ft | 177 kts | 262° |
| 2026-05-06 17:50 | 48.36388 | 12.05262 | 4797 ft | 184 kts | 263° |
| 2026-05-06 17:50 | 48.36243 | 12.03366 | 4561 ft | 182 kts | 262° |
| 2026-05-06 17:50 | 48.36101 | 12.01515 | 4298 ft | 176 kts | 262° |
| 2026-05-06 17:50 | 48.35961 | 11.99708 | 4048 ft | 169 kts | 263° |
| 2026-05-06 17:51 | 48.35830 | 11.98008 | 3841 ft | 166 kts | 263° |
| 2026-05-06 17:51 | 48.35696 | 11.96258 | 3614 ft | 169 kts | 263° |
| 2026-05-06 17:51 | 48.35561 | 11.94501 | 3390 ft | 168 kts | 263° |
| 2026-05-06 17:51 | 48.35429 | 11.92799 | 3173 ft | 162 kts | 264° |
| 2026-05-06 17:52 | 48.35301 | 11.91126 | 2966 ft | 157 kts | 264° |
| 2026-05-06 17:52 | 48.35174 | 11.89473 | 2749 ft | 165 kts | 263° |
| 2026-05-06 17:52 | 48.35043 | 11.87777 | 2518 ft | 165 kts | 262° |
| 2026-05-06 17:52 | 48.34910 | 11.86034 | 2218 ft | 166 kts | 262° |
| 2026-05-06 17:53 | 48.34798 | 11.84379 | 1987 ft | 155 kts | 264° |
| 2026-05-06 17:53 | 48.34661 | 11.82851 | 1797 ft | 140 kts | 261° |
| 2026-05-06 17:53 | 48.34547 | 11.81436 | 1647 ft | 132 kts | 261° |
| 2026-05-06 17:53 | 48.34450 | 11.80076 | 1487 ft | 127 kts | 261° |
| 2026-05-06 17:54 | 48.34366 | 11.79036 | 1481 ft | 41 kts | 263° |
| 2026-05-06 17:54 | 48.34371 | 11.78692 | 1484 ft | 31 kts | 275° |
| 2026-05-06 17:54 | 48.34433 | 11.78412 | 1485 ft | 26 kts | 295° |
| 2026-05-06 17:54 | 48.34500 | 11.78168 | 1478 ft | 15 kts | 290° |
| 2026-05-06 17:55 | 48.34503 | 11.78158 | 1478 ft | 0 kts | 290° |
| 2026-05-06 17:55 | 48.34506 | 11.78153 | 1477 ft | 2 kts | 306° |
| 2026-05-06 17:55 | 48.34538 | 11.78141 | 1485 ft | 8 kts | 1° |
| 2026-05-06 17:56 | 48.34578 | 11.78199 | 1481 ft | 10 kts | 72° |
| 2026-05-06 17:56 | 48.34582 | 11.78317 | 1475 ft | 13 kts | 87° |
| 2026-05-06 17:56 | 48.34589 | 11.78467 | 1484 ft | 16 kts | 83° |
| 2026-05-06 17:56 | 48.34610 | 11.78646 | 1472 ft | 10 kts | 80° |
| 2026-05-06 17:57 | 48.34610 | 11.78650 | 1472 ft | 0 kts | 80° |
| 2026-05-06 17:57 | 48.34620 | 11.78747 | 1480 ft | 23 kts | 82° |
| 2026-05-06 17:57 | 48.34642 | 11.79021 | 1482 ft | 29 kts | 83° |
| 2026-05-06 17:57 | 48.34667 | 11.79347 | 1476 ft | 32 kts | 83° |
| 2026-05-06 17:58 | 48.34759 | 11.79555 | 1478 ft | 25 kts | 1° |
| 2026-05-06 17:58 | 48.34840 | 11.79559 | 1478 ft | 2 kts | 357° |
| 2026-05-06 17:58 | 48.34865 | 11.79556 | 1470 ft | 0 kts | 354° |
| 2026-05-06 17:59 | 48.34879 | 11.79554 | 1475 ft | 4 kts | 354° |
| 2026-05-06 17:59 | 48.34950 | 11.79549 | 1476 ft | 15 kts | 9° |
| 2026-05-06 17:59 | 48.35047 | 11.79666 | 1478 ft | 21 kts | 49° |
| 2026-05-06 17:59 | 48.35083 | 11.79878 | 1472 ft | 23 kts | 82° |
| 2026-05-06 18:00 | 48.35118 | 11.80132 | 1464 ft | 26 kts | 46° |
| 2026-05-06 18:00 | 48.35213 | 11.80182 | 1470 ft | 8 kts | 355° |
| 2026-05-06 18:00 | 48.35269 | 11.80181 | 1471 ft | 0 kts | 356° |
| 2026-05-06 18:00 | 48.35276 | 11.80164 | 1472 ft | 9 kts | 291° |
| 2026-05-06 18:01 | 48.35262 | 11.80056 | 1475 ft | 8 kts | 263° |
| 2026-05-06 18:01 | 48.35262 | 11.80052 | 1475 ft | 0 kts | 263° |